Time,TemperatureF,DewpointF,PressureIn,WindDirection,WindDirectionDegrees,WindSpeedMPH,WindSpeedGustMPH,Humidity,HourlyPrecipIn,Conditions,Clouds,dailyrainin,SolarRadiationWatts/m^2,SoftwareType,DateUTC
2013-01-30 00:11:00,66.0,62.0,30.31,NNE,23,12.0,20.0,88,0.00,,,0.00,0.000000,,2013-01-30 10:11:00,
2013-01-30 00:21:00,66.0,62.0,30.31,NNE,23,12.0,20.0,88,0.00,,,0.00,0.000000,,2013-01-30 10:21:00,
2013-01-30 00:31:00,66.0,62.0,30.31,NNE,23,12.0,20.0,88,0.00,,,0.00,0.000000,,2013-01-30 10:31:00,
2013-01-30 00:41:00,66.0,62.0,30.31,NNE,23,12.0,20.0,88,0.00,,,0.00,0.000000,,2013-01-30 10:41:00,
2013-01-30 00:51:00,66.0,62.0,30.31,NNE,23,12.0,20.0,88,0.00,,,0.00,0.000000,,2013-01-30 10:51:00,
2013-01-30 01:11:00,67.0,64.0,30.30,NE,35,9.0,18.0,90,0.00,,,0.00,0.000000,,2013-01-30 11:11:00,
2013-01-30 01:22:00,67.0,64.0,30.30,NE,35,9.0,18.0,90,0.00,,,0.00,0.000000,,2013-01-30 11:22:00,
2013-01-30 01:32:00,67.0,64.0,30.30,NE,35,9.0,18.0,90,0.00,,,0.00,0.000000,,2013-01-30 11:32:00,
2013-01-30 01:41:00,67.0,64.0,30.30,NE,35,9.0,18.0,90,0.00,,,0.00,0.000000,,2013-01-30 11:41:00,
2013-01-30 01:51:00,67.0,64.0,30.30,NE,35,9.0,18.0,90,0.00,,,0.00,0.000000,,2013-01-30 11:51:00,
2013-01-30 02:12:00,67.0,66.0,30.31,ENE,72,5.0,12.0,95,0.00,,,0.00,0.000000,,2013-01-30 12:12:00,
2013-01-30 02:22:00,67.0,66.0,30.31,ENE,72,5.0,12.0,95,0.00,,,0.00,0.000000,,2013-01-30 12:22:00,
2013-01-30 02:32:00,67.0,66.0,30.31,ENE,72,5.0,12.0,95,0.00,,,0.00,0.000000,,2013-01-30 12:32:00,
2013-01-30 02:42:00,67.0,66.0,30.31,ENE,72,5.0,12.0,95,0.00,,,0.00,0.000000,,2013-01-30 12:42:00,
2013-01-30 03:12:00,67.0,65.0,30.30,North,10,3.0,7.0,94,0.00,,,0.00,0.000000,,2013-01-30 13:12:00,
2013-01-30 03:22:00,67.0,65.0,30.30,North,10,3.0,7.0,94,0.00,,,0.00,0.000000,,2013-01-30 13:22:00,
2013-01-30 03:32:00,67.0,65.0,30.30,North,10,3.0,7.0,94,0.00,,,0.00,0.000000,,2013-01-30 13:32:00,
2013-01-30 03:42:00,67.0,65.0,30.30,North,10,3.0,7.0,94,0.00,,,0.00,0.000000,,2013-01-30 13:42:00,
2013-01-30 03:52:00,67.0,65.0,30.30,North,10,3.0,7.0,94,0.00,,,0.00,0.000000,,2013-01-30 13:52:00,
2013-01-30 04:22:00,69.0,66.0,30.30,North,7,3.0,5.0,91,0.00,,,0.00,0.000000,,2013-01-30 14:22:00,
2013-01-30 04:32:00,69.0,66.0,30.30,North,7,3.0,5.0,91,0.00,,,0.00,0.000000,,2013-01-30 14:32:00,
2013-01-30 04:42:00,69.0,66.0,30.30,North,7,3.0,5.0,91,0.00,,,0.00,0.000000,,2013-01-30 14:42:00,
2013-01-30 04:52:00,69.0,66.0,30.30,North,7,3.0,5.0,91,0.00,,,0.00,0.000000,,2013-01-30 14:52:00,
2013-01-30 05:12:00,69.0,66.0,30.30,ENE,70,3.0,5.0,90,0.00,,,0.00,0.000000,,2013-01-30 15:12:00,
2013-01-30 05:23:00,69.0,66.0,30.30,ENE,70,3.0,5.0,90,0.00,,,0.00,0.000000,,2013-01-30 15:23:00,
2013-01-30 05:33:00,69.0,66.0,30.30,ENE,70,3.0,5.0,90,0.00,,,0.00,0.000000,,2013-01-30 15:33:00,
2013-01-30 05:42:00,69.0,66.0,30.30,ENE,70,3.0,5.0,90,0.00,,,0.00,0.000000,,2013-01-30 15:42:00,
2013-01-30 05:52:00,69.0,66.0,30.30,ENE,70,3.0,5.0,90,0.00,,,0.00,0.000000,,2013-01-30 15:52:00,
2013-01-30 06:23:00,69.0,66.0,30.31,NE,43,4.0,6.0,91,0.00,,,0.00,0.000000,,2013-01-30 16:23:00,
2013-01-30 06:32:00,69.0,66.0,30.31,NE,43,4.0,6.0,91,0.00,,,0.00,0.000000,,2013-01-30 16:32:00,
2013-01-30 06:42:00,69.0,66.0,30.31,NE,43,4.0,6.0,91,0.00,,,0.00,0.000000,,2013-01-30 16:42:00,
2013-01-30 06:51:00,69.0,66.0,30.31,NE,43,4.0,6.0,91,0.00,,,0.00,0.000000,,2013-01-30 16:51:00,
2013-01-30 07:22:00,69.0,68.0,30.32,SSE,154,6.0,13.0,95,0.00,,,0.00,0.000000,,2013-01-30 17:22:00,
2013-01-30 07:32:00,69.0,68.0,30.32,SSE,154,6.0,13.0,95,0.00,,,0.00,0.000000,,2013-01-30 17:32:00,
2013-01-30 07:42:00,69.0,68.0,30.32,SSE,154,6.0,13.0,95,0.00,,,0.00,0.000000,,2013-01-30 17:42:00,
2013-01-30 07:52:00,69.0,68.0,30.32,SSE,154,6.0,13.0,95,0.00,,,0.00,0.000000,,2013-01-30 17:52:00,
2013-01-30 08:12:00,69.0,68.0,30.34,SE,140,7.0,13.0,96,0.00,,,-99.99,0.000000,,2013-01-30 18:12:00,
2013-01-30 08:22:00,69.0,68.0,30.34,SE,140,7.0,13.0,96,0.00,,,-99.99,0.000000,,2013-01-30 18:22:00,
2013-01-30 08:33:00,69.0,68.0,30.34,SE,140,7.0,13.0,96,0.00,,,-99.99,0.000000,,2013-01-30 18:33:00,
2013-01-30 08:42:00,69.0,68.0,30.34,SE,140,7.0,13.0,96,0.00,,,-99.99,0.000000,,2013-01-30 18:42:00,
2013-01-30 08:51:00,69.0,68.0,30.34,SE,140,7.0,13.0,96,0.00,,,-99.99,0.000000,,2013-01-30 18:51:00,
2013-01-30 09:12:00,69.0,68.0,30.35,SSE,150,7.0,13.0,95,0.00,,,0.00,4.000000,,2013-01-30 19:12:00,
2013-01-30 09:22:00,69.0,68.0,30.35,SSE,150,7.0,13.0,95,0.00,,,0.00,4.000000,,2013-01-30 19:22:00,
2013-01-30 09:32:00,69.0,68.0,30.35,SSE,150,7.0,13.0,95,0.00,,,0.00,4.000000,,2013-01-30 19:32:00,
2013-01-30 09:42:00,69.0,68.0,30.35,SSE,150,7.0,13.0,95,0.00,,,0.00,4.000000,,2013-01-30 19:42:00,
2013-01-30 09:52:00,69.0,68.0,30.35,SSE,150,7.0,13.0,95,0.00,,,0.00,4.000000,,2013-01-30 19:52:00,
2013-01-30 10:11:00,69.0,66.0,30.38,SSE,163,6.0,12.0,91,0.00,,,0.00,45.000000,,2013-01-30 20:11:00,
2013-01-30 10:22:00,69.0,66.0,30.38,SSE,163,6.0,12.0,91,0.00,,,0.00,45.000000,,2013-01-30 20:22:00,
2013-01-30 10:33:00,69.0,66.0,30.38,SSE,163,6.0,12.0,91,0.00,,,0.00,45.000000,,2013-01-30 20:33:00,
2013-01-30 10:42:00,69.0,66.0,30.38,SSE,163,6.0,12.0,91,0.00,,,0.00,45.000000,,2013-01-30 20:42:00,
2013-01-30 10:52:00,69.0,66.0,30.38,SSE,163,6.0,12.0,91,0.00,,,0.00,45.000000,,2013-01-30 20:52:00,
2013-01-30 11:22:00,70.0,66.0,30.38,SSE,162,6.0,9.0,88,0.00,,,0.00,134.000000,,2013-01-30 21:22:00,
2013-01-30 11:32:00,70.0,66.0,30.38,SSE,162,6.0,9.0,88,0.00,,,0.00,134.000000,,2013-01-30 21:32:00,
2013-01-30 11:42:00,70.0,66.0,30.38,SSE,162,6.0,9.0,88,0.00,,,0.00,134.000000,,2013-01-30 21:42:00,
2013-01-30 11:52:00,70.0,66.0,30.38,SSE,162,6.0,9.0,88,0.00,,,0.00,134.000000,,2013-01-30 21:52:00,
2013-01-30 12:11:00,73.0,66.0,30.36,SSW,212,4.0,9.0,79,0.00,,,-99.99,251.000000,,2013-01-30 22:11:00,
2013-01-30 12:22:00,73.0,66.0,30.36,SSW,212,4.0,9.0,79,0.00,,,-99.99,251.000000,,2013-01-30 22:22:00,
2013-01-30 12:32:00,73.0,66.0,30.36,SSW,212,4.0,9.0,79,0.00,,,-99.99,251.000000,,2013-01-30 22:32:00,
2013-01-30 12:41:00,73.0,66.0,30.36,SSW,212,4.0,9.0,79,0.00,,,-99.99,251.000000,,2013-01-30 22:41:00,
2013-01-30 12:52:00,73.0,66.0,30.36,SSW,212,4.0,9.0,79,0.00,,,-99.99,251.000000,,2013-01-30 22:52:00,
2013-01-30 13:22:00,74.0,66.0,30.35,SSW,193,8.0,12.0,76,0.00,,,0.00,460.000000,,2013-01-30 23:22:00,
2013-01-30 13:32:00,74.0,66.0,30.35,SSW,193,8.0,12.0,76,0.00,,,0.00,460.000000,,2013-01-30 23:32:00,
2013-01-30 13:42:00,74.0,66.0,30.35,SSW,193,8.0,12.0,76,0.00,,,0.00,460.000000,,2013-01-30 23:42:00,
2013-01-30 13:52:00,74.0,66.0,30.35,SSW,193,8.0,12.0,76,0.00,,,0.00,460.000000,,2013-01-30 23:52:00,
2013-01-30 14:21:00,76.0,69.0,30.32,SSW,201,7.0,15.0,78,0.00,,,0.00,981.000000,,2013-01-31 00:21:00,
2013-01-30 14:32:00,76.0,69.0,30.32,SSW,201,7.0,15.0,78,0.00,,,0.00,981.000000,,2013-01-31 00:32:00,
2013-01-30 14:42:00,76.0,69.0,30.32,SSW,201,7.0,15.0,78,0.00,,,0.00,981.000000,,2013-01-31 00:42:00,
2013-01-30 14:52:00,76.0,69.0,30.32,SSW,201,7.0,15.0,78,0.00,,,0.00,981.000000,,2013-01-31 00:52:00,
2013-01-30 15:11:00,75.0,66.0,30.31,SSW,196,7.0,13.0,74,0.00,,,0.00,763.000000,,2013-01-31 01:11:00,
2013-01-30 15:21:00,75.0,66.0,30.31,SSW,196,7.0,13.0,74,0.00,,,0.00,763.000000,,2013-01-31 01:21:00,
2013-01-30 15:31:00,75.0,66.0,30.31,SSW,196,7.0,13.0,74,0.00,,,0.00,763.000000,,2013-01-31 01:31:00,
2013-01-30 15:41:00,75.0,66.0,30.31,SSW,196,7.0,13.0,74,0.00,,,0.00,763.000000,,2013-01-31 01:41:00,
2013-01-30 15:52:00,75.0,66.0,30.31,SSW,196,7.0,13.0,74,0.00,,,0.00,763.000000,,2013-01-31 01:52:00,
2013-01-30 16:21:00,71.0,66.0,30.31,NE,43,8.0,13.0,85,0.00,,,0.00,899.000000,,2013-01-31 02:21:00,
2013-01-30 16:32:00,71.0,66.0,30.31,NE,43,8.0,13.0,85,0.00,,,0.00,899.000000,,2013-01-31 02:32:00,
2013-01-30 16:41:00,71.0,66.0,30.31,NE,43,8.0,13.0,85,0.00,,,0.00,899.000000,,2013-01-31 02:41:00,
2013-01-30 16:52:00,71.0,66.0,30.31,NE,43,8.0,13.0,85,0.00,,,0.00,899.000000,,2013-01-31 02:52:00,
2013-01-30 17:11:00,70.0,67.0,30.31,ENE,61,3.0,9.0,89,0.00,,,0.00,713.000000,,2013-01-31 03:11:00,
2013-01-30 17:21:00,70.0,67.0,30.31,ENE,61,3.0,9.0,89,0.00,,,0.00,713.000000,,2013-01-31 03:21:00,
2013-01-30 17:32:00,70.0,67.0,30.31,ENE,61,3.0,9.0,89,0.00,,,0.00,713.000000,,2013-01-31 03:32:00,
2013-01-30 17:41:00,70.0,67.0,30.31,ENE,61,3.0,9.0,89,0.00,,,0.00,713.000000,,2013-01-31 03:41:00,
2013-01-30 17:51:00,70.0,67.0,30.31,ENE,61,3.0,9.0,89,0.00,,,0.00,713.000000,,2013-01-31 03:51:00,
2013-01-30 18:22:00,71.0,68.0,30.32,NE,40,6.0,11.0,91,0.00,,,0.00,134.000000,,2013-01-31 04:22:00,
2013-01-30 18:31:00,71.0,68.0,30.32,NE,40,6.0,11.0,91,0.00,,,0.00,134.000000,,2013-01-31 04:31:00,
2013-01-30 18:41:00,71.0,68.0,30.32,NE,40,6.0,11.0,91,0.00,,,0.00,134.000000,,2013-01-31 04:41:00,
2013-01-30 18:51:00,71.0,68.0,30.32,NE,40,6.0,11.0,91,0.00,,,0.00,134.000000,,2013-01-31 04:51:00,
2013-01-30 19:11:00,70.0,67.0,30.32,NNE,21,10.0,17.0,91,0.00,,,0.00,53.000000,,2013-01-31 05:11:00,
2013-01-30 19:22:00,70.0,67.0,30.32,NNE,21,10.0,17.0,91,0.00,,,0.00,53.000000,,2013-01-31 05:22:00,
2013-01-30 19:31:00,70.0,67.0,30.32,NNE,21,10.0,17.0,91,0.00,,,0.00,53.000000,,2013-01-31 05:31:00,
2013-01-30 19:41:00,70.0,67.0,30.32,NNE,21,10.0,17.0,91,0.00,,,0.00,53.000000,,2013-01-31 05:41:00,
2013-01-30 19:51:00,70.0,67.0,30.32,NNE,21,10.0,17.0,91,0.00,,,0.00,53.000000,,2013-01-31 05:51:00,